Time;durP1;ratioP1;P1;durP2;ratioP2;P2;SDS_P1;SDS_P2;PMS_P1;PMS_P2;Temp;Humidity;BMP_temperature;BMP_pressure;BME280_temperature;BME280_humidity;BME280_pressure;Samples;Min_cycle;Max_cycle;Signal;HPM_P1;HPM_P2
2021/04/29 00:01:58;;;;;;;13.57;9.40;;;11.20;99.90;;;;;;4996966;28;20410;-83
2021/04/29 00:04:23;;;;;;;14.03;9.67;;;11.20;99.90;;;;;;4995787;28;20424;-84
2021/04/29 00:06:49;;;;;;;14.97;9.83;;;11.20;99.90;;;;;;4997324;28;20180;-83
2021/04/29 00:09:15;;;;;;;12.40;10.13;;;11.30;99.90;;;;;;4995516;28;20206;-83
2021/04/29 00:11:41;;;;;;;13.40;9.63;;;11.30;99.90;;;;;;4996785;28;20178;-83
2021/04/29 00:14:09;;;;;;;14.20;8.90;;;11.30;99.90;;;;;;5011977;28;20426;-83
2021/04/29 00:16:35;;;;;;;14.00;10.23;;;11.30;99.90;;;;;;4995770;28;20442;-83
2021/04/29 00:19:01;;;;;;;14.03;10.17;;;11.30;99.90;;;;;;4996101;28;20484;-83
2021/04/29 00:21:27;;;;;;;14.17;9.77;;;11.30;99.90;;;;;;5007283;28;20531;-88
2021/04/29 00:23:53;;;;;;;11.13;10.03;;;11.30;99.90;;;;;;5011033;28;20272;-88
2021/04/29 00:26:18;;;;;;;15.10;10.10;;;11.40;99.90;;;;;;5012839;28;20481;-79
2021/04/29 00:28:44;;;;;;;13.70;10.30;;;11.40;99.90;;;;;;5012551;28;20194;-79
2021/04/29 00:31:09;;;;;;;14.33;11.03;;;11.50;99.90;;;;;;5012714;28;20243;-79
2021/04/29 00:33:35;;;;;;;12.40;10.57;;;11.50;99.90;;;;;;5011028;28;20649;-79
2021/04/29 00:36:01;;;;;;;17.30;11.37;;;11.50;99.90;;;;;;5011130;28;20205;-79
2021/04/29 00:38:30;;;;;;;11.90;10.43;;;11.50;99.90;;;;;;5012500;28;20210;-79
2021/04/29 00:40:56;;;;;;;12.10;10.47;;;11.50;99.90;;;;;;5012077;28;20205;-79
2021/04/29 00:43:22;;;;;;;11.97;10.30;;;11.50;99.90;;;;;;5012323;28;20444;-79
2021/04/29 00:45:48;;;;;;;13.37;11.93;;;11.50;99.90;;;;;;5012728;28;20429;-79
2021/04/29 00:48:14;;;;;;;15.63;11.40;;;11.50;99.90;;;;;;5012226;28;20197;-79
2021/04/29 00:50:39;;;;;;;13.73;11.50;;;11.60;99.90;;;;;;5012292;28;20215;-79
2021/04/29 00:53:05;;;;;;;13.63;10.80;;;11.60;99.90;;;;;;5014335;28;20514;-79
2021/04/29 00:55:32;;;;;;;15.37;12.00;;;11.60;99.90;;;;;;5015893;28;20284;-79
2021/04/29 00:57:57;;;;;;;12.80;11.47;;;11.50;99.90;;;;;;5013995;28;20186;-79
2021/04/29 01:00:25;;;;;;;16.00;12.33;;;11.60;99.90;;;;;;5015576;28;20686;-79
2021/04/29 01:02:57;;;;;;;12.13;10.83;;;11.60;99.90;;;;;;5016050;28;20210;-79
2021/04/29 01:05:36;;;;;;;13.50;11.03;;;11.60;99.90;;;;;;5015869;28;20779;-79
2021/04/29 01:08:13;;;;;;;14.57;10.87;;;11.60;99.90;;;;;;5015711;28;20485;-79
2021/04/29 01:10:44;;;;;;;14.93;10.90;;;11.70;99.90;;;;;;5014215;28;20468;-84
2021/04/29 01:13:18;;;;;;;12.37;8.53;;;11.70;99.90;;;;;;5016944;28;20421;-83
2021/04/29 01:15:46;;;;;;;12.50;8.20;;;11.70;99.90;;;;;;5017010;28;20829;-83
2021/04/29 01:18:13;;;;;;;9.20;7.90;;;11.80;99.90;;;;;;5016667;28;20445;-84
2021/04/29 01:20:42;;;;;;;7.70;6.90;;;11.70;99.90;;;;;;5016713;28;20536;-83
2021/04/29 01:23:28;;;;;;;8.63;6.53;;;11.80;99.90;;;;;;5015671;28;20548;-83
2021/04/29 01:26:01;;;;;;;7.53;6.77;;;11.80;99.90;;;;;;5013832;28;20915;-83
2021/04/29 01:28:27;;;;;;;6.90;6.20;;;11.90;99.90;;;;;;5011502;28;20430;-83
2021/04/29 01:30:54;;;;;;;8.47;7.57;;;11.90;99.90;;;;;;5016772;28;20460;-83
2021/04/29 01:33:20;;;;;;;7.33;6.63;;;11.90;99.90;;;;;;5016591;28;20429;-83
2021/04/29 01:35:46;;;;;;;6.50;5.90;;;11.80;99.90;;;;;;5015383;28;20444;-83
2021/04/29 01:38:12;;;;;;;6.93;5.30;;;11.90;99.90;;;;;;5017209;28;20195;-84
2021/04/29 01:40:38;;;;;;;7.60;6.27;;;11.90;99.90;;;;;;5015220;28;20456;-78
2021/04/29 01:43:06;;;;;;;6.30;5.60;;;11.80;99.90;;;;;;5015064;28;20440;-78
2021/04/29 01:45:32;;;;;;;5.90;5.40;;;11.80;99.90;;;;;;5014691;28;20434;-79
2021/04/29 01:47:59;;;;;;;6.23;5.63;;;11.80;99.90;;;;;;5014928;28;20893;-78
2021/04/29 01:50:25;;;;;;;6.17;5.60;;;11.80;99.90;;;;;;5013534;28;20256;-79
2021/04/29 01:52:51;;;;;;;6.47;5.87;;;11.80;99.90;;;;;;5015215;28;20413;-78
2021/04/29 01:55:17;;;;;;;7.20;5.67;;;11.80;99.90;;;;;;5014985;28;20433;-78
2021/04/29 01:57:44;;;;;;;6.43;5.47;;;11.80;99.90;;;;;;5013612;28;20429;-78
2021/04/29 02:00:11;;;;;;;5.37;4.87;;;11.80;99.90;;;;;;5004437;28;20877;-77
2021/04/29 02:02:37;;;;;;;7.33;5.27;;;11.80;99.90;;;;;;5012683;28;20564;-78
2021/04/29 02:05:04;;;;;;;7.23;6.53;;;11.80;99.90;;;;;;5013299;28;20524;-78
2021/04/29 02:07:29;;;;;;;5.50;4.90;;;11.70;99.90;;;;;;5012767;28;20449;-78
2021/04/29 02:09:55;;;;;;;6.10;5.60;;;11.70;99.90;;;;;;5014250;28;20445;-78
2021/04/29 02:12:23;;;;;;;10.67;5.43;;;11.70;99.90;;;;;;5006974;28;20190;-78
2021/04/29 02:14:53;;;;;;;6.60;5.87;;;11.70;99.90;;;;;;5014297;28;20645;-78
2021/04/29 02:17:43;;;;;;;9.70;6.60;;;11.70;99.90;;;;;;5013601;28;20814;-78
2021/04/29 02:20:12;;;;;;;6.43;5.83;;;11.70;99.90;;;;;;5014122;28;20469;-78
2021/04/29 02:22:39;;;;;;;7.80;6.43;;;11.70;99.90;;;;;;5013992;28;20559;-78
2021/04/29 02:25:07;;;;;;;7.70;7.00;;;11.70;99.90;;;;;;5013782;28;20438;-79
2021/04/29 02:27:34;;;;;;;7.90;7.20;;;11.70;99.90;;;;;;5009530;28;20423;-79
2021/04/29 02:30:00;;;;;;;6.80;6.20;;;11.60;99.90;;;;;;5009318;28;20448;-79
2021/04/29 02:32:26;;;;;;;6.70;5.93;;;11.70;99.90;;;;;;5014567;28;20425;-79
2021/04/29 02:34:52;;;;;;;6.70;5.70;;;11.60;99.90;;;;;;5014495;28;20428;-79
2021/04/29 02:37:18;;;;;;;6.70;6.10;;;11.60;99.90;;;;;;5002299;28;20615;-79
2021/04/29 02:39:44;;;;;;;6.87;6.17;;;11.60;99.90;;;;;;5014506;28;21015;-79
2021/04/29 02:42:12;;;;;;;7.93;6.50;;;11.70;99.90;;;;;;5014945;28;20425;-78
2021/04/29 02:44:38;;;;;;;7.73;6.37;;;11.70;99.90;;;;;;5014297;28;20182;-78
2021/04/29 02:47:04;;;;;;;8.93;7.70;;;11.70;99.90;;;;;;5013930;28;20468;-79
2021/04/29 02:49:31;;;;;;;13.10;8.60;;;11.70;99.90;;;;;;5011275;28;20308;-79
2021/04/29 02:51:58;;;;;;;7.33;6.63;;;11.70;99.90;;;;;;5014367;28;20825;-79
2021/04/29 02:54:23;;;;;;;7.97;4.70;;;11.60;99.90;;;;;;5014152;28;20440;-79
2021/04/29 02:56:49;;;;;;;3.30;3.10;;;11.60;99.90;;;;;;5013874;28;20440;-79
2021/04/29 02:59:15;;;;;;;5.03;3.43;;;11.60;99.90;;;;;;5009962;28;20248;-79
2021/04/29 03:01:42;;;;;;;3.63;3.03;;;11.50;99.90;;;;;;5010207;28;20668;-79
2021/04/29 03:04:08;;;;;;;2.20;2.00;;;11.50;99.90;;;;;;5014113;28;20418;-78
2021/04/29 03:06:35;;;;;;;1.77;1.67;;;11.40;99.90;;;;;;5006665;28;20445;-79
2021/04/29 03:09:00;;;;;;;1.60;1.50;;;11.40;99.90;;;;;;5008921;28;20315;-79
2021/04/29 03:11:26;;;;;;;2.10;1.60;;;11.40;99.90;;;;;;5013430;28;20437;-78
2021/04/29 03:13:52;;;;;;;1.53;1.43;;;11.40;99.90;;;;;;5012573;28;20200;-79
2021/04/29 03:16:17;;;;;;;1.90;1.80;;;11.40;99.90;;;;;;5009041;28;20267;-79
2021/04/29 03:18:43;;;;;;;2.27;1.70;;;11.30;99.90;;;;;;5012140;28;20206;-79
2021/04/29 03:21:09;;;;;;;2.80;1.90;;;11.30;99.90;;;;;;5013750;28;20609;-79
2021/04/29 03:23:35;;;;;;;2.13;1.70;;;11.20;99.90;;;;;;5007305;28;20218;-79
2021/04/29 03:26:00;;;;;;;1.73;1.60;;;11.20;99.90;;;;;;5013343;28;20413;-79
2021/04/29 03:28:26;;;;;;;1.50;1.50;;;11.20;99.90;;;;;;5011359;28;20184;-79
2021/04/29 03:30:51;;;;;;;3.00;1.50;;;11.10;99.90;;;;;;5012343;28;20239;-79
2021/04/29 03:33:17;;;;;;;1.20;1.10;;;11.10;99.90;;;;;;5005098;28;20220;-79
2021/04/29 03:35:43;;;;;;;1.33;1.10;;;11.10;99.90;;;;;;5012681;28;20437;-79
2021/04/29 03:38:08;;;;;;;1.20;1.20;;;11.00;99.90;;;;;;5011975;28;20683;-79
2021/04/29 03:40:37;;;;;;;1.77;1.67;;;11.00;99.90;;;;;;5013073;28;20209;-79
2021/04/29 03:43:04;;;;;;;0.80;0.80;;;10.90;99.90;;;;;;5013305;28;20192;-79
2021/04/29 03:45:30;;;;;;;1.67;1.17;;;10.90;99.90;;;;;;5013122;28;20774;-79
2021/04/29 03:47:56;;;;;;;1.00;1.00;;;10.90;99.90;;;;;;5004803;28;20447;-79
2021/04/29 03:50:21;;;;;;;2.03;0.90;;;10.90;99.90;;;;;;5015291;28;20269;-82
2021/04/29 03:52:47;;;;;;;1.10;1.00;;;10.90;99.90;;;;;;5005440;28;20182;-83
2021/04/29 03:55:13;;;;;;;0.83;0.80;;;10.80;99.90;;;;;;5013282;28;20265;-82
2021/04/29 03:57:38;;;;;;;3.23;0.93;;;10.80;99.90;;;;;;5011431;28;20192;-82
2021/04/29 04:00:07;;;;;;;0.73;0.73;;;10.80;99.90;;;;;;5014862;28;20215;-82
2021/04/29 04:02:32;;;;;;;1.00;0.90;;;10.70;99.90;;;;;;5013586;28;20191;-82
2021/04/29 04:04:58;;;;;;;0.80;0.80;;;10.80;99.90;;;;;;5012994;28;20443;-82
2021/04/29 04:07:23;;;;;;;6.23;1.00;;;10.70;99.90;;;;;;5014067;28;20184;-82
2021/04/29 04:09:49;;;;;;;0.80;0.80;;;10.70;99.90;;;;;;5014424;28;20203;-82
2021/04/29 04:12:15;;;;;;;2.70;1.10;;;10.60;99.90;;;;;;5015503;28;20184;-84
2021/04/29 04:14:40;;;;;;;0.83;0.83;;;10.60;99.90;;;;;;5014829;28;20197;-83
2021/04/29 04:17:06;;;;;;;1.67;1.20;;;10.60;99.90;;;;;;5014977;28;20177;-83
2021/04/29 04:19:31;;;;;;;0.80;0.80;;;10.60;99.90;;;;;;5014662;28;20723;-83
2021/04/29 04:21:57;;;;;;;2.00;1.07;;;10.60;99.90;;;;;;5012666;28;20701;-83
2021/04/29 04:24:23;;;;;;;1.77;0.97;;;10.50;99.90;;;;;;5013345;28;20267;-83
2021/04/29 04:26:48;;;;;;;3.90;1.10;;;10.50;99.90;;;;;;5014091;28;20225;-83
2021/04/29 04:29:14;;;;;;;1.40;0.90;;;10.50;99.90;;;;;;5018531;28;20574;-84
2021/04/29 04:31:39;;;;;;;1.60;1.03;;;10.50;99.90;;;;;;5014193;28;20184;-77
2021/04/29 04:34:05;;;;;;;2.10;1.30;;;10.40;99.90;;;;;;5015935;28;20260;-77
2021/04/29 04:36:30;;;;;;;1.10;0.90;;;10.40;99.90;;;;;;5015871;28;20192;-78
2021/04/29 04:38:56;;;;;;;0.97;0.93;;;10.40;99.90;;;;;;5013755;28;20595;-78
2021/04/29 04:41:22;;;;;;;1.53;1.33;;;10.30;99.90;;;;;;5016748;28;20205;-77
2021/04/29 04:43:47;;;;;;;3.53;1.50;;;10.30;99.90;;;;;;5013511;28;20687;-78
2021/04/29 04:46:13;;;;;;;1.23;1.10;;;10.30;99.90;;;;;;5015850;28;20215;-78
2021/04/29 04:48:38;;;;;;;1.17;1.07;;;10.40;99.90;;;;;;5014419;28;21129;-78
2021/04/29 04:51:04;;;;;;;0.70;0.70;;;10.40;99.90;;;;;;5015900;28;20257;-78
2021/04/29 04:53:30;;;;;;;1.40;1.30;;;10.50;99.90;;;;;;5014460;28;20510;-78
2021/04/29 04:55:55;;;;;;;2.97;1.13;;;10.50;99.90;;;;;;5013981;28;20444;-78
2021/04/29 04:58:21;;;;;;;2.07;1.13;;;10.60;99.90;;;;;;5012318;28;20200;-78
2021/04/29 05:00:50;;;;;;;1.90;0.90;;;10.70;99.90;;;;;;5013644;28;20291;-78
2021/04/29 05:03:16;;;;;;;1.43;1.30;;;10.80;99.90;;;;;;5014915;28;20652;-79
2021/04/29 05:05:43;;;;;;;0.80;0.80;;;10.90;99.90;;;;;;5023025;28;20465;-81
2021/04/29 05:08:09;;;;;;;1.20;1.20;;;11.00;99.90;;;;;;5016839;28;20437;-80
2021/04/29 05:10:37;;;;;;;1.93;1.20;;;11.10;99.90;;;;;;5016821;28;20485;-80
2021/04/29 05:13:03;;;;;;;1.40;1.10;;;11.30;99.90;;;;;;5012898;28;20519;-80
2021/04/29 05:15:30;;;;;;;1.20;1.10;;;11.50;99.90;;;;;;5016573;28;20433;-79
2021/04/29 05:17:56;;;;;;;0.97;0.97;;;11.70;99.90;;;;;;5014679;28;20515;-80
2021/04/29 05:20:22;;;;;;;2.60;1.27;;;12.00;99.90;;;;;;5015739;28;20465;-80
2021/04/29 05:22:47;;;;;;;2.30;1.10;;;12.80;99.90;;;;;;5014098;28;20445;-80
2021/04/29 05:25:13;;;;;;;3.37;1.00;;;13.20;99.90;;;;;;5015890;28;20720;-80
2021/04/29 05:27:39;;;;;;;0.90;0.90;;;13.70;99.90;;;;;;5017205;28;20187;-81
2021/04/29 05:30:07;;;;;;;1.23;1.10;;;13.60;99.90;;;;;;5018789;28;20602;-80
2021/04/29 05:32:32;;;;;;;2.43;1.50;;;13.30;99.90;;;;;;5019493;28;20277;-81
2021/04/29 05:34:58;;;;;;;3.90;2.13;;;12.90;99.90;;;;;;5018350;28;20468;-81
2021/04/29 05:37:25;;;;;;;3.83;2.00;;;12.60;99.90;;;;;;5018575;28;20266;-81
2021/04/29 05:39:51;;;;;;;2.27;2.07;;;12.30;99.90;;;;;;5019386;28;20211;-81
2021/04/29 05:42:17;;;;;;;5.37;1.93;;;12.10;99.90;;;;;;5019408;28;20431;-81
2021/04/29 05:44:43;;;;;;;2.33;2.13;;;12.00;99.90;;;;;;5018030;28;20448;-81
2021/04/29 05:47:08;;;;;;;2.80;2.60;;;11.80;99.90;;;;;;5016407;28;20185;-80
2021/04/29 05:49:34;;;;;;;3.63;2.00;;;11.80;99.90;;;;;;5018964;28;20285;-80
2021/04/29 05:52:00;;;;;;;3.10;1.63;;;11.80;99.90;;;;;;5017979;28;20277;-80
2021/04/29 05:54:25;;;;;;;2.00;1.87;;;11.60;99.90;;;;;;5017670;28;20214;-81
2021/04/29 05:56:51;;;;;;;1.80;1.70;;;11.50;99.90;;;;;;5017000;28;20190;-81
2021/04/29 05:59:16;;;;;;;3.70;2.57;;;11.50;99.90;;;;;;5009292;28;20221;-80
2021/04/29 06:01:42;;;;;;;6.80;2.27;;;11.50;99.90;;;;;;5017351;28;20205;-80
2021/04/29 06:04:08;;;;;;;3.30;2.00;;;11.60;99.90;;;;;;5017484;28;20236;-81
2021/04/29 06:06:33;;;;;;;3.00;2.63;;;11.70;99.90;;;;;;5016277;28;20193;-80
2021/04/29 06:08:59;;;;;;;2.83;2.53;;;11.70;99.90;;;;;;5016908;28;20236;-81
2021/04/29 06:11:24;;;;;;;4.27;2.97;;;11.80;99.90;;;;;;5016708;28;20209;-81
2021/04/29 06:13:50;;;;;;;4.80;2.87;;;12.00;99.90;;;;;;5014951;28;20193;-80
2021/04/29 06:16:16;;;;;;;4.80;2.40;;;12.10;99.90;;;;;;5016670;28;20191;-80
2021/04/29 06:18:42;;;;;;;2.80;2.60;;;12.10;99.90;;;;;;5015457;28;20242;-80
2021/04/29 06:21:08;;;;;;;3.53;2.80;;;12.30;99.90;;;;;;5016095;28;20189;-80
2021/04/29 06:23:34;;;;;;;3.67;3.27;;;12.60;99.90;;;;;;5015907;28;20492;-80
2021/04/29 06:26:03;;;;;;;2.87;2.67;;;13.00;99.90;;;;;;5014721;28;20842;-79
2021/04/29 06:28:29;;;;;;;5.37;3.03;;;13.50;99.90;;;;;;5016536;28;20213;-81
2021/04/29 06:30:55;;;;;;;2.80;2.60;;;13.70;99.90;;;;;;5016396;28;20488;-79
2021/04/29 06:33:23;;;;;;;3.43;3.13;;;14.10;99.90;;;;;;5015866;28;20441;-80
2021/04/29 06:35:54;;;;;;;3.13;2.80;;;14.40;99.90;;;;;;5011172;28;20775;-80
2021/04/29 06:38:20;;;;;;;5.43;3.40;;;14.30;99.90;;;;;;5015402;28;20465;-80
2021/04/29 06:40:47;;;;;;;3.60;3.30;;;14.30;99.90;;;;;;5015816;28;20540;-80
2021/04/29 06:43:12;;;;;;;4.30;2.70;;;14.40;99.90;;;;;;5016796;28;20422;-80
2021/04/29 06:45:41;;;;;;;3.57;3.27;;;14.50;99.90;;;;;;5016903;28;20787;-80
2021/04/29 06:48:10;;;;;;;4.40;3.60;;;14.70;99.90;;;;;;5017491;28;20179;-80
2021/04/29 06:50:37;;;;;;;4.23;3.90;;;15.00;99.90;;;;;;5016040;28;20425;-80
2021/04/29 06:53:03;;;;;;;4.37;3.97;;;15.30;99.90;;;;;;5013529;28;20469;-80
2021/04/29 06:55:28;;;;;;;5.83;3.63;;;15.80;99.90;;;;;;5006446;28;20515;-80
2021/04/29 06:57:54;;;;;;;6.13;4.10;;;16.30;99.90;;;;;;5016985;28;20409;-79
2021/04/29 07:00:20;;;;;;;6.80;5.03;;;16.20;99.90;;;;;;5015546;28;20205;-80
2021/04/29 07:02:46;;;;;;;4.37;4.00;;;16.10;99.90;;;;;;5016021;28;20254;-80
2021/04/29 07:05:12;;;;;;;5.43;4.27;;;15.80;99.90;;;;;;5012522;28;21205;-80
2021/04/29 07:07:37;;;;;;;6.23;4.53;;;15.50;99.90;;;;;;5014050;28;20182;-80
2021/04/29 07:10:03;;;;;;;5.80;4.10;;;15.40;99.90;;;;;;5016437;28;20200;-80
2021/04/29 07:12:29;;;;;;;6.40;4.80;;;15.60;99.90;;;;;;5016475;28;20167;-80
2021/04/29 07:14:55;;;;;;;6.60;4.40;;;15.50;99.90;;;;;;5016610;28;20460;-80
2021/04/29 07:17:20;;;;;;;5.47;4.83;;;15.60;99.90;;;;;;5016374;28;20189;-79
2021/04/29 07:19:46;;;;;;;10.67;5.07;;;15.60;99.90;;;;;;5015539;28;20206;-79
2021/04/29 07:22:11;;;;;;;4.47;4.07;;;15.50;99.90;;;;;;5014748;28;20186;-81
2021/04/29 07:24:37;;;;;;;6.60;4.53;;;15.60;99.90;;;;;;5017874;28;20191;-81
2021/04/29 07:27:04;;;;;;;10.43;4.50;;;15.40;99.90;;;;;;5018339;28;20704;-81
2021/04/29 07:29:29;;;;;;;5.37;4.50;;;15.10;99.90;;;;;;5015899;28;20218;-81
2021/04/29 07:31:55;;;;;;;6.50;5.67;;;15.30;99.90;;;;;;5014417;28;20437;-81
2021/04/29 07:34:20;;;;;;;4.90;4.43;;;15.30;99.90;;;;;;5017387;28;20229;-81
2021/04/29 07:36:46;;;;;;;5.70;4.60;;;15.40;99.90;;;;;;5013625;28;20181;-81
2021/04/29 07:39:11;;;;;;;6.00;5.40;;;15.30;99.90;;;;;;5015505;28;20244;-81
2021/04/29 07:41:37;;;;;;;4.67;4.27;;;15.30;99.90;;;;;;5017242;28;20179;-82
2021/04/29 07:44:03;;;;;;;6.07;4.77;;;15.30;99.90;;;;;;5012959;28;20191;-82
2021/04/29 07:46:31;;;;;;;7.30;5.10;;;15.60;99.90;;;;;;5011740;28;20186;-82
2021/04/29 07:48:56;;;;;;;4.70;4.30;;;15.90;99.90;;;;;;5005914;28;20202;-82
2021/04/29 07:51:22;;;;;;;5.20;4.57;;;16.60;99.90;;;;;;5002914;28;20851;-81
2021/04/29 07:53:48;;;;;;;4.90;4.43;;;17.10;99.90;;;;;;5005346;28;20186;-82
2021/04/29 07:56:13;;;;;;;14.40;5.23;;;17.40;99.90;;;;;;5000195;28;21036;-82
2021/04/29 07:58:39;;;;;;;7.03;5.10;;;17.00;99.90;;;;;;5005159;28;20554;-82
2021/04/29 08:01:05;;;;;;;6.87;5.03;;;16.90;99.90;;;;;;5005646;28;20862;-82
2021/04/29 08:03:30;;;;;;;4.87;4.37;;;17.20;99.90;;;;;;5009453;28;20557;-81
2021/04/29 08:05:56;;;;;;;7.97;5.60;;;17.10;99.90;;;;;;5016453;28;20208;-79
2021/04/29 08:08:21;;;;;;;8.40;5.27;;;17.30;99.90;;;;;;5014344;28;20210;-80
2021/04/29 08:10:47;;;;;;;9.83;5.60;;;17.50;99.90;;;;;;5012332;28;20743;-80
2021/04/29 08:13:13;;;;;;;5.13;4.73;;;18.10;99.90;;;;;;5015791;28;20202;-81
2021/04/29 08:15:40;;;;;;;9.17;5.00;;;18.50;99.90;;;;;;5015015;28;20205;-81
2021/04/29 08:18:06;;;;;;;6.10;5.70;;;18.70;99.90;;;;;;5015939;28;20525;-83
2021/04/29 08:20:32;;;;;;;8.10;5.97;;;19.30;99.90;;;;;;5015220;28;20787;-83
2021/04/29 08:22:57;;;;;;;5.87;5.13;;;19.40;99.90;;;;;;5017422;28;20409;-81
2021/04/29 08:25:23;;;;;;;8.60;6.60;;;19.40;99.90;;;;;;5020279;28;20183;-81
2021/04/29 08:27:50;;;;;;;8.53;5.57;;;19.10;99.90;;;;;;5020501;28;20258;-81
2021/04/29 08:30:16;;;;;;;6.87;6.20;;;18.50;99.90;;;;;;5020907;28;20566;-81
2021/04/29 08:32:41;;;;;;;8.47;6.33;;;17.80;99.90;;;;;;5021835;28;20429;-81
2021/04/29 08:35:08;;;;;;;7.73;6.53;;;17.40;99.90;;;;;;5020714;28;20791;-81
2021/04/29 08:37:34;;;;;;;11.17;6.73;;;17.30;99.90;;;;;;5020805;28;20194;-81
2021/04/29 08:40:01;;;;;;;9.17;7.07;;;17.20;99.90;;;;;;5025245;28;20476;-81
2021/04/29 08:42:28;;;;;;;9.13;6.70;;;17.70;99.90;;;;;;5028057;28;20440;-81
2021/04/29 08:44:54;;;;;;;9.93;6.90;;;18.30;99.90;;;;;;5018475;28;20814;-81
2021/04/29 08:47:20;;;;;;;12.80;7.00;;;18.70;99.90;;;;;;5017334;28;20501;-81
2021/04/29 08:49:47;;;;;;;8.00;7.20;;;18.70;99.90;;;;;;5014489;28;20233;-81
2021/04/29 08:52:14;;;;;;;8.73;6.97;;;18.60;99.90;;;;;;5015947;28;20429;-81
2021/04/29 08:54:45;;;;;;;9.70;6.50;;;18.00;99.90;;;;;;5016133;28;20881;-81
2021/04/29 08:57:11;;;;;;;8.77;7.50;;;17.50;99.90;;;;;;5015051;28;20453;-81
2021/04/29 08:59:37;;;;;;;6.20;5.03;;;17.10;99.90;;;;;;5015645;28;20496;-82
2021/04/29 09:02:02;;;;;;;7.80;6.40;;;16.80;99.90;;;;;;5014299;28;20178;-81
2021/04/29 09:04:38;;;;;;;8.73;6.57;;;16.70;99.90;;;;;;5014127;28;20277;-80
2021/04/29 09:07:30;;;;;;;12.70;7.10;;;16.90;99.90;;;;;;5013308;28;20182;-81
2021/04/29 09:09:56;;;;;;;8.50;6.33;;;16.90;99.90;;;;;;5013041;28;20853;-81
2021/04/29 09:12:32;;;;;;;8.87;7.20;;;16.80;99.90;;;;;;5015302;28;20425;-81
2021/04/29 09:14:57;;;;;;;8.13;7.30;;;16.60;99.90;;;;;;5012170;28;20549;-81
2021/04/29 09:17:23;;;;;;;11.20;8.27;;;16.30;99.90;;;;;;5014784;28;20440;-81
2021/04/29 09:19:50;;;;;;;11.60;7.77;;;16.10;99.90;;;;;;5014559;28;20210;-82
2021/04/29 09:22:18;;;;;;;8.80;7.23;;;15.80;99.90;;;;;;5015187;28;20297;-84
2021/04/29 09:24:44;;;;;;;8.80;7.90;;;15.60;99.90;;;;;;5013241;28;20442;-84
2021/04/29 09:27:18;;;;;;;9.67;8.67;;;15.00;99.90;;;;;;5014273;28;20946;-84
2021/04/29 09:29:55;;;;;;;8.57;7.67;;;14.40;99.90;;;;;;5021818;28;20284;-85
2021/04/29 09:32:35;;;;;;;9.70;8.80;;;13.90;99.90;;;;;;5013354;28;20939;-84
2021/04/29 09:35:03;;;;;;;10.93;9.37;;;13.40;99.90;;;;;;5013065;28;20430;-83
2021/04/29 09:37:33;;;;;;;11.43;9.60;;;13.10;99.90;;;;;;5014366;28;20436;-83
2021/04/29 09:40:00;;;;;;;12.73;10.93;;;12.90;99.90;;;;;;5014302;28;20492;-83
2021/04/29 09:42:37;;;;;;;12.50;8.33;;;12.70;99.90;;;;;;5019281;28;20422;-82
2021/04/29 09:45:15;;;;;;;13.77;8.93;;;12.60;99.90;;;;;;5015907;28;20421;-84
2021/04/29 09:47:41;;;;;;;12.00;10.13;;;12.50;99.90;;;;;;5013632;28;20522;-83
2021/04/29 09:50:07;;;;;;;10.10;9.03;;;12.60;99.90;;;;;;5013960;28;20461;-81
2021/04/29 09:52:33;;;;;;;12.00;9.60;;;12.50;99.90;;;;;;5013999;28;20214;-80
2021/04/29 09:55:04;;;;;;;9.47;8.10;;;12.50;99.90;;;;;;5013961;28;20456;-80
2021/04/29 09:57:30;;;;;;;12.07;8.70;;;12.50;99.90;;;;;;5013751;28;20181;-80
2021/04/29 09:59:59;;;;;;;10.67;9.60;;;12.60;99.90;;;;;;5014098;28;21010;-80
2021/04/29 10:02:28;;;;;;;13.77;9.13;;;12.70;99.90;;;;;;5014331;28;20426;-80
2021/04/29 10:04:54;;;;;;;12.63;9.33;;;12.90;99.90;;;;;;5014564;28;20424;-79
2021/04/29 10:07:21;;;;;;;11.13;9.13;;;13.30;99.90;;;;;;5013791;28;20426;-79
2021/04/29 10:09:48;;;;;;;9.13;8.23;;;13.70;99.90;;;;;;5014710;28;20978;-80
2021/04/29 10:12:16;;;;;;;8.87;8.00;;;14.10;99.90;;;;;;5013713;28;20441;-80
2021/04/29 10:14:43;;;;;;;8.97;8.07;;;14.50;99.90;;;;;;5014107;28;20520;-80
2021/04/29 10:17:10;;;;;;;9.00;8.10;;;14.80;99.90;;;;;;5014035;28;20495;-79
2021/04/29 10:19:59;;;;;;;8.27;7.53;;;14.90;99.90;;;;;;5013884;28;21030;-80
2021/04/29 10:22:26;;;;;;;9.73;7.30;;;15.10;99.90;;;;;;5012851;28;20436;-79
2021/04/29 10:24:53;;;;;;;10.00;6.83;;;15.30;99.90;;;;;;5012782;28;20421;-79
2021/04/29 10:27:24;;;;;;;11.80;7.60;;;15.70;99.90;;;;;;5013740;28;20426;-80
2021/04/29 10:30:13;;;;;;;10.63;6.47;;;16.00;99.90;;;;;;5011114;28;20461;-80
2021/04/29 10:32:39;;;;;;;6.77;5.50;;;16.30;99.90;;;;;;5009236;28;20444;-80
2021/04/29 10:35:20;;;;;;;11.77;7.00;;;16.90;99.90;;;;;;5013724;28;20425;-80
2021/04/29 10:38:01;;;;;;;7.47;6.77;;;17.20;99.90;;;;;;5012019;28;20546;-80
2021/04/29 10:40:31;;;;;;;8.27;7.30;;;17.10;99.90;;;;;;5012713;28;20473;-80
2021/04/29 10:42:57;;;;;;;7.67;6.83;;;16.90;99.90;;;;;;5013905;28;20426;-80
2021/04/29 10:45:23;;;;;;;9.90;7.23;;;16.80;99.90;;;;;;5013590;28;20806;-80
2021/04/29 10:47:48;;;;;;;7.87;7.17;;;16.90;99.90;;;;;;5014399;28;20250;-80
2021/04/29 10:50:19;;;;;;;7.00;6.50;;;17.10;99.90;;;;;;5012187;28;20218;-80
2021/04/29 10:52:57;;;;;;;7.03;6.30;;;17.40;99.90;;;;;;5013837;28;20302;-80
2021/04/29 10:55:35;;;;;;;7.40;6.60;;;17.90;99.90;;;;;;5012578;28;20460;-79
2021/04/29 10:58:03;;;;;;;7.70;6.20;;;18.10;99.90;;;;;;5013367;28;20422;-80
2021/04/29 11:00:31;;;;;;;8.20;6.63;;;18.30;99.90;;;;;;5013042;28;20459;-80
2021/04/29 11:03:01;;;;;;;6.40;5.80;;;18.60;99.90;;;;;;5011578;28;20948;-79
2021/04/29 11:05:28;;;;;;;5.23;4.73;;;18.50;99.90;;;;;;5011826;28;20804;-80
2021/04/29 11:07:54;;;;;;;12.13;5.30;;;17.40;99.90;;;;;;5013957;28;20504;-80
2021/04/29 11:10:25;;;;;;;7.23;5.10;;;16.70;99.90;;;;;;5013141;28;20484;-79
2021/04/29 11:12:54;;;;;;;6.17;4.73;;;16.00;99.90;;;;;;5012933;28;20229;-80
2021/04/29 11:15:23;;;;;;;5.73;5.23;;;15.80;99.90;;;;;;5013186;28;20433;-80
2021/04/29 11:18:01;;;;;;;6.60;4.70;;;15.60;99.90;;;;;;5012732;28;20938;-79
2021/04/29 11:20:27;;;;;;;7.27;4.83;;;15.30;99.90;;;;;;5010608;28;20861;-80
2021/04/29 11:22:56;;;;;;;5.67;5.17;;;15.10;99.90;;;;;;5013028;28;20476;-79
2021/04/29 11:25:23;;;;;;;5.73;3.87;;;15.00;99.90;;;;;;5013700;28;20189;-80
2021/04/29 11:27:54;;;;;;;4.20;3.80;;;14.90;99.90;;;;;;5013448;28;20440;-80
2021/04/29 11:30:22;;;;;;;5.30;4.13;;;14.60;99.90;;;;;;5013114;28;20499;-79
2021/04/29 11:32:59;;;;;;;5.80;3.90;;;14.50;99.90;;;;;;5013429;28;20426;-79
2021/04/29 11:35:27;;;;;;;4.57;3.93;;;14.30;99.90;;;;;;5011675;28;20868;-80
2021/04/29 11:37:53;;;;;;;4.90;4.47;;;14.00;99.90;;;;;;5012834;28;20436;-79
2021/04/29 11:40:20;;;;;;;4.47;3.40;;;13.80;99.90;;;;;;5013222;28;20461;-79
2021/04/29 11:42:50;;;;;;;7.00;4.10;;;13.70;99.90;;;;;;5013084;28;20440;-79
2021/04/29 11:45:30;;;;;;;4.80;3.90;;;13.70;99.90;;;;;;5009382;28;20417;-80
2021/04/29 11:48:11;;;;;;;5.07;4.60;;;13.80;99.90;;;;;;5011014;28;20418;-79
2021/04/29 11:50:39;;;;;;;4.20;3.80;;;13.90;99.90;;;;;;5012673;28;20449;-79
2021/04/29 11:53:12;;;;;;;7.83;4.50;;;14.10;99.90;;;;;;5013421;28;20459;-80
2021/04/29 11:55:41;;;;;;;4.83;4.20;;;14.30;99.90;;;;;;5013049;28;20432;-80
2021/04/29 11:58:09;;;;;;;5.53;3.87;;;14.40;99.90;;;;;;5013014;28;20533;-79
2021/04/29 12:00:37;;;;;;;4.60;4.13;;;14.40;99.90;;;;;;5012709;28;21001;-79
2021/04/29 12:03:07;;;;;;;4.60;4.17;;;14.50;99.90;;;;;;5012994;28;20430;-79
2021/04/29 12:05:42;;;;;;;4.13;3.83;;;14.40;99.90;;;;;;5012748;28;20534;-79
2021/04/29 12:08:25;;;;;;;3.73;3.43;;;14.50;99.90;;;;;;5013375;28;20526;-79
2021/04/29 12:10:52;;;;;;;3.90;3.60;;;14.80;99.90;;;;;;5008424;28;20449;-80
2021/04/29 12:13:28;;;;;;;5.97;3.53;;;15.30;99.90;;;;;;5012608;28;20436;-80
2021/04/29 12:15:55;;;;;;;6.47;4.50;;;15.50;99.90;;;;;;5009468;28;20459;-79
2021/04/29 12:18:20;;;;;;;4.27;3.10;;;15.60;99.90;;;;;;5012123;28;20456;-80
2021/04/29 12:20:46;;;;;;;3.93;3.63;;;15.30;99.90;;;;;;5012782;28;20437;-79
2021/04/29 12:23:12;;;;;;;4.10;3.70;;;15.20;99.90;;;;;;5012114;28;20175;-81
2021/04/29 12:25:39;;;;;;;5.33;4.67;;;15.30;99.90;;;;;;5011669;28;20213;-80
2021/04/29 12:28:15;;;;;;;4.13;3.73;;;15.20;99.90;;;;;;5012464;28;20422;-80
2021/04/29 12:30:41;;;;;;;4.60;3.60;;;15.10;99.90;;;;;;5011817;28;20878;-80
2021/04/29 12:33:16;;;;;;;4.43;3.33;;;14.90;99.90;;;;;;5012600;28;20446;-80
2021/04/29 12:35:42;;;;;;;4.83;4.23;;;14.80;99.90;;;;;;5014338;28;20186;-81
2021/04/29 12:38:08;;;;;;;5.13;4.73;;;14.70;99.90;;;;;;5014906;28;20480;-80
2021/04/29 12:40:36;;;;;;;5.53;4.10;;;14.60;99.90;;;;;;5015747;28;20465;-81
2021/04/29 12:43:17;;;;;;;7.27;4.80;;;14.80;99.90;;;;;;5015031;28;20182;-81
2021/04/29 12:45:53;;;;;;;7.83;5.30;;;14.80;99.90;;;;;;5013346;28;20472;-81